createdAt,value
2023-02-17T00:00:07.730Z,7.26
2023-02-17T00:02:35.342Z,7.20
2023-02-17T00:05:01.435Z,7.03
2023-02-17T00:07:30.840Z,7.07
2023-02-17T00:10:00.298Z,7.20
2023-02-17T00:12:26.570Z,7.27
2023-02-17T00:14:52.641Z,7.22
2023-02-17T00:17:18.723Z,7.10
2023-02-17T00:19:44.958Z,7.07
2023-02-17T00:22:11.064Z,7.18
2023-02-17T00:24:38.444Z,6.85
2023-02-17T00:27:05.147Z,7.22
2023-02-17T00:29:32.133Z,6.67
2023-02-17T00:31:58.514Z,7.04
2023-02-17T00:34:25.117Z,7.25
2023-02-17T00:36:51.229Z,7.15
2023-02-17T00:39:17.523Z,5.60
2023-02-17T00:41:44.032Z,7.22
2023-02-17T00:44:16.674Z,5.83
2023-02-17T00:46:42.911Z,7.24
2023-02-17T00:49:14.900Z,7.33
2023-02-17T00:51:41.041Z,7.37
2023-02-17T00:54:07.138Z,7.39
2023-02-17T00:56:33.202Z,7.34
2023-02-17T00:58:59.291Z,7.33
2023-02-17T01:01:25.419Z,7.41
2023-02-17T01:03:51.692Z,7.36
2023-02-17T01:06:26.010Z,7.51
2023-02-17T01:08:52.294Z,7.36
2023-02-17T01:11:19.962Z,7.45
2023-02-17T01:13:46.129Z,7.48
2023-02-17T01:16:28.524Z,7.39
2023-02-17T01:18:55.394Z,7.53
2023-02-17T01:21:23.858Z,6.75
2023-02-17T01:23:53.097Z,7.52
2023-02-17T01:26:22.390Z,7.48
2023-02-17T01:28:49.445Z,7.55
2023-02-17T01:31:15.824Z,7.61
2023-02-17T01:33:42.235Z,7.49
2023-02-17T01:36:13.516Z,7.38
2023-02-17T01:38:39.782Z,7.55
2023-02-17T01:41:06.641Z,7.62
2023-02-17T01:43:33.196Z,7.72
2023-02-17T01:46:00.835Z,5.91
2023-02-17T01:48:34.200Z,7.60
2023-02-17T01:51:00.264Z,7.63
2023-02-17T01:53:35.124Z,7.61
2023-02-17T01:56:02.157Z,7.61
2023-02-17T01:58:28.718Z,7.60
2023-02-17T02:00:58.449Z,7.74
2023-02-17T02:03:25.982Z,7.48
2023-02-17T02:05:52.178Z,7.69
2023-02-17T02:08:18.345Z,7.67
2023-02-17T02:10:44.515Z,7.11
2023-02-17T02:13:10.713Z,7.52
2023-02-17T02:15:46.368Z,5.63
2023-02-17T02:18:37.552Z,7.53
2023-02-17T02:21:15.531Z,7.44
2023-02-17T02:23:49.542Z,7.50
2023-02-17T02:26:40.390Z,7.42
2023-02-17T02:29:21.437Z,7.57
2023-02-17T02:32:35.893Z,7.67
2023-02-17T02:35:43.541Z,7.68
2023-02-17T02:38:14.640Z,7.65
2023-02-17T02:40:45.522Z,7.49
2023-02-17T02:43:12.152Z,7.65
2023-02-17T02:45:38.437Z,6.51
2023-02-17T02:48:04.569Z,7.65
2023-02-17T02:50:47.935Z,7.51
2023-02-17T02:53:35.908Z,7.59
2023-02-17T02:56:08.450Z,7.81
2023-02-17T02:58:56.143Z,7.71
2023-02-17T03:01:41.954Z,7.59
2023-02-17T03:04:25.880Z,7.66
2023-02-17T03:07:08.510Z,7.75
2023-02-17T03:09:34.632Z,7.61
2023-02-17T03:12:00.756Z,7.76
2023-02-17T03:14:28.002Z,7.55
2023-02-17T03:16:54.733Z,7.59
2023-02-17T03:19:22.995Z,7.66
2023-02-17T03:21:53.178Z,7.69
2023-02-17T03:24:19.523Z,7.65
2023-02-17T03:26:45.815Z,7.69
2023-02-17T03:29:11.922Z,7.66
2023-02-17T03:31:38.699Z,7.76
2023-02-17T03:34:05.075Z,7.59
2023-02-17T03:36:31.236Z,7.71
2023-02-17T03:38:57.603Z,7.56
2023-02-17T03:41:24.327Z,7.75
2023-02-17T03:43:50.461Z,7.75
2023-02-17T03:46:17.338Z,7.82
2023-02-17T03:48:43.570Z,7.72
2023-02-17T03:51:12.060Z,7.84
2023-02-17T03:53:39.349Z,7.95
2023-02-17T03:56:06.005Z,7.99
2023-02-17T03:58:32.532Z,7.67
2023-02-17T04:00:58.613Z,7.79
2023-02-17T04:03:24.955Z,7.85
2023-02-17T04:05:51.112Z,7.79
2023-02-17T04:08:17.219Z,7.85
2023-02-17T04:10:44.412Z,7.93
2023-02-17T04:13:10.548Z,7.99
2023-02-17T04:15:36.673Z,8.01
2023-02-17T04:18:02.900Z,7.83
2023-02-17T04:20:29.015Z,8.11
2023-02-17T04:22:55.111Z,8.01
2023-02-17T04:25:21.193Z,7.63
2023-02-17T04:27:47.240Z,7.98
2023-02-17T04:30:13.964Z,7.87
2023-02-17T04:32:40.115Z,8.00
2023-02-17T04:35:06.726Z,8.06
2023-02-17T04:37:32.796Z,8.07
2023-02-17T04:39:58.880Z,8.00
2023-02-17T04:42:25.069Z,7.98
2023-02-17T04:44:51.232Z,8.06
2023-02-17T04:47:17.311Z,6.99
2023-02-17T04:49:43.469Z,7.94
2023-02-17T04:52:09.612Z,8.26
2023-02-17T04:54:35.795Z,8.17
2023-02-17T04:57:01.961Z,8.24
2023-02-17T04:59:28.050Z,7.88
2023-02-17T05:01:54.138Z,8.20
2023-02-17T05:04:20.278Z,8.27
2023-02-17T05:06:46.354Z,8.17
2023-02-17T05:09:12.405Z,8.18
2023-02-17T05:11:38.485Z,8.26
2023-02-17T05:14:04.574Z,8.25
2023-02-17T05:16:30.655Z,8.18
2023-02-17T05:18:56.741Z,7.02
2023-02-17T05:21:22.818Z,8.10
2023-02-17T05:23:48.959Z,8.35
2023-02-17T05:26:15.037Z,8.26
2023-02-17T05:28:41.477Z,8.36
2023-02-17T05:31:07.782Z,7.73
2023-02-17T05:33:34.086Z,7.38
2023-02-17T05:36:05.395Z,8.36
2023-02-17T05:38:32.352Z,8.32
2023-02-17T05:40:58.710Z,8.17
2023-02-17T05:43:24.849Z,8.45
2023-02-17T05:45:51.071Z,8.37
2023-02-17T05:48:17.239Z,8.44
2023-02-17T05:50:43.368Z,8.45
2023-02-17T05:53:09.445Z,8.46
2023-02-17T05:55:35.537Z,8.48
2023-02-17T05:58:01.737Z,7.78
2023-02-17T06:00:28.166Z,8.27
2023-02-17T06:02:54.316Z,8.44
2023-02-17T06:05:20.622Z,8.57
2023-02-17T06:07:46.730Z,8.48
2023-02-17T06:10:12.912Z,8.34
2023-02-17T06:12:39.156Z,8.41
2023-02-17T06:15:05.719Z,8.33
2023-02-17T06:17:31.800Z,8.44
2023-02-17T06:19:57.904Z,8.42
2023-02-17T06:22:23.989Z,8.38
2023-02-17T06:24:50.132Z,8.55
2023-02-17T06:27:16.243Z,8.43
2023-02-17T06:29:42.925Z,8.49
2023-02-17T06:32:09.048Z,8.57
2023-02-17T06:34:35.156Z,8.63
2023-02-17T06:37:01.275Z,7.15
2023-02-17T06:39:27.374Z,8.59
2023-02-17T06:41:53.453Z,8.54
2023-02-17T06:44:19.521Z,8.62
2023-02-17T06:46:46.221Z,8.58
2023-02-17T06:49:13.218Z,8.68
2023-02-17T06:51:39.598Z,8.72
2023-02-17T06:54:05.924Z,7.91
2023-02-17T06:56:32.541Z,8.66
2023-02-17T06:58:58.599Z,8.29
2023-02-17T07:01:25.644Z,7.81
2023-02-17T07:03:52.723Z,8.85
2023-02-17T07:06:18.967Z,8.90
2023-02-17T07:08:45.060Z,9.01
2023-02-17T07:11:13.548Z,9.04
2023-02-17T07:13:40.415Z,9.08
2023-02-17T07:16:08.078Z,9.08
2023-02-17T07:18:34.370Z,9.05
2023-02-17T07:21:00.448Z,9.09
2023-02-17T07:23:26.654Z,9.06
2023-02-17T07:25:52.732Z,9.07
2023-02-17T07:28:18.835Z,8.09
2023-02-17T07:30:44.975Z,8.52
2023-02-17T07:33:11.110Z,9.18
2023-02-17T07:35:43.239Z,9.25
2023-02-17T07:38:09.768Z,9.33
2023-02-17T07:40:36.071Z,9.34
2023-02-17T07:43:02.161Z,9.30
2023-02-17T07:45:28.427Z,9.21
2023-02-17T07:47:54.732Z,9.33
2023-02-17T07:50:21.016Z,9.37
2023-02-17T07:52:47.200Z,9.47
2023-02-17T07:55:13.383Z,8.92
2023-02-17T07:57:39.533Z,9.47
2023-02-17T08:00:06.376Z,9.39
2023-02-17T08:02:32.460Z,9.47
2023-02-17T08:04:58.555Z,6.60
2023-02-17T08:07:24.846Z,9.58
2023-02-17T08:10:09.489Z,9.57
2023-02-17T08:12:53.968Z,9.59
2023-02-17T08:15:20.168Z,9.56
2023-02-17T08:17:50.611Z,9.60
2023-02-17T08:20:17.266Z,9.60
2023-02-17T08:22:43.329Z,9.50
2023-02-17T08:25:09.486Z,9.65
2023-02-17T08:27:35.642Z,9.67
2023-02-17T08:30:02.781Z,9.65
2023-02-17T08:32:28.880Z,9.69
2023-02-17T08:34:56.427Z,8.67
2023-02-17T08:37:22.539Z,9.71
2023-02-17T08:39:48.835Z,9.77
2023-02-17T08:42:14.971Z,9.83
2023-02-17T08:44:41.180Z,9.38
2023-02-17T08:47:08.170Z,9.32
2023-02-17T08:49:35.186Z,9.82
2023-02-17T08:52:01.788Z,9.86
2023-02-17T08:54:28.035Z,9.89
2023-02-17T08:56:54.208Z,9.90
2023-02-17T08:59:20.420Z,10.05
2023-02-17T09:01:46.555Z,10.05
2023-02-17T09:04:14.045Z,10.07
2023-02-17T09:06:42.883Z,10.06
2023-02-17T09:09:11.071Z,10.16
2023-02-17T09:11:37.613Z,10.18
2023-02-17T09:14:04.338Z,10.22
2023-02-17T09:16:30.863Z,10.22
2023-02-17T09:18:57.076Z,9.96
2023-02-17T09:21:23.676Z,10.44
2023-02-17T09:23:50.231Z,10.49
2023-02-17T09:26:17.309Z,10.45
2023-02-17T09:28:43.662Z,10.41
2023-02-17T09:31:20.926Z,10.54
2023-02-17T09:33:47.914Z,10.54
2023-02-17T09:36:17.197Z,10.61
2023-02-17T09:38:43.454Z,10.69
2023-02-17T09:41:18.631Z,10.71
2023-02-17T09:43:45.074Z,10.76
2023-02-17T09:46:37.459Z,10.74
2023-02-17T09:49:10.617Z,10.77
2023-02-17T09:51:45.228Z,10.94
2023-02-17T09:54:17.655Z,10.94
2023-02-17T09:56:47.735Z,10.98
2023-02-17T09:59:37.506Z,11.06
2023-02-17T10:02:12.790Z,11.10
2023-02-17T10:04:40.982Z,11.18
2023-02-17T10:07:11.505Z,11.22
2023-02-17T10:09:46.141Z,11.27
2023-02-17T10:12:16.499Z,11.36
2023-02-17T10:14:50.410Z,11.06
2023-02-17T10:17:26.420Z,11.36
2023-02-17T10:19:55.589Z,11.34
2023-02-17T10:22:23.418Z,11.49
2023-02-17T10:24:49.630Z,9.34
2023-02-17T10:27:25.131Z,11.51
2023-02-17T10:30:04.198Z,11.57
2023-02-17T10:32:36.994Z,11.57
2023-02-17T10:35:15.105Z,11.38
2023-02-17T10:37:48.219Z,11.60
2023-02-17T10:40:19.592Z,11.66
2023-02-17T10:42:47.012Z,11.48
2023-02-17T10:45:44.421Z,10.67
2023-02-17T10:48:23.444Z,11.46
2023-02-17T10:50:50.002Z,11.71
2023-02-17T10:53:21.920Z,11.75
2023-02-17T10:56:01.639Z,11.75
2023-02-17T10:58:36.174Z,11.82
2023-02-17T11:01:05.480Z,11.90
2023-02-17T11:03:32.883Z,11.70
2023-02-17T11:06:01.564Z,11.97
2023-02-17T11:08:27.657Z,11.97
2023-02-17T11:11:03.164Z,12.08
2023-02-17T11:13:33.576Z,12.05
2023-02-17T11:15:59.849Z,12.17
2023-02-17T11:18:30.130Z,12.32
2023-02-17T11:21:14.219Z,12.35
2023-02-17T11:23:54.446Z,12.41
2023-02-17T11:26:26.262Z,12.39
2023-02-17T11:28:53.103Z,12.43
2023-02-17T11:31:24.511Z,12.44
2023-02-17T11:33:50.773Z,12.51
2023-02-17T11:36:27.275Z,12.52
2023-02-17T11:38:53.650Z,12.57
2023-02-17T11:41:20.436Z,12.65
2023-02-17T11:43:52.083Z,12.56
2023-02-17T11:46:31.682Z,12.64
2023-02-17T11:49:00.708Z,12.66
2023-02-17T11:51:51.490Z,12.74
2023-02-17T11:54:20.530Z,12.76
2023-02-17T11:56:56.925Z,10.78
2023-02-17T12:00:00.856Z,12.92
2023-02-17T12:02:33.077Z,13.03
2023-02-17T12:05:19.415Z,13.06
2023-02-17T12:08:00.677Z,13.23
2023-02-17T12:10:32.736Z,13.25
2023-02-17T12:13:04.720Z,13.44
2023-02-17T12:15:48.635Z,13.44
2023-02-17T12:18:48.147Z,13.51
2023-02-17T12:21:38.358Z,13.65
2023-02-17T12:24:37.170Z,13.57
2023-02-17T12:27:29.628Z,13.77
2023-02-17T12:30:06.921Z,12.97
2023-02-17T12:32:39.133Z,13.72
2023-02-17T12:35:19.126Z,13.44
2023-02-17T12:37:50.342Z,14.08
2023-02-17T12:40:41.368Z,14.13
2023-02-17T12:43:41.732Z,13.78
2023-02-17T12:46:21.411Z,14.54
2023-02-17T12:48:53.517Z,14.45
2023-02-17T12:51:24.333Z,14.50
2023-02-17T12:54:03.118Z,14.35
2023-02-17T12:56:39.927Z,13.72
2023-02-17T12:59:34.724Z,15.03
2023-02-17T13:02:10.173Z,14.54
2023-02-17T13:04:36.465Z,14.45
2023-02-17T13:07:34.247Z,14.57
2023-02-17T13:10:00.854Z,14.57
2023-02-17T13:12:26.916Z,14.68
2023-02-17T13:14:55.298Z,14.87
2023-02-17T13:17:32.181Z,14.95
2023-02-17T13:20:04.376Z,14.93
2023-02-17T13:22:30.647Z,14.79
2023-02-17T13:24:56.835Z,14.74
2023-02-17T13:27:31.858Z,14.62
2023-02-17T13:30:02.064Z,14.58
2023-02-17T13:32:38.011Z,14.69
2023-02-17T13:35:23.835Z,14.67
2023-02-17T13:37:49.891Z,14.96
2023-02-17T13:40:15.931Z,15.08
2023-02-17T13:42:44.786Z,15.15
2023-02-17T13:45:22.681Z,15.27
2023-02-17T13:47:50.144Z,15.09
2023-02-17T13:50:30.087Z,15.16
2023-02-17T13:52:56.282Z,14.98
2023-02-17T13:55:23.662Z,14.90
2023-02-17T13:57:57.488Z,14.73
2023-02-17T14:00:28.967Z,14.76
2023-02-17T14:03:16.946Z,14.71
2023-02-17T14:05:44.588Z,14.67
2023-02-17T14:08:36.856Z,14.64
2023-02-17T14:11:10.580Z,14.58
2023-02-17T14:13:38.841Z,14.54
2023-02-17T14:16:06.645Z,13.53
2023-02-17T14:18:38.348Z,14.38
2023-02-17T14:21:12.415Z,14.51
2023-02-17T14:23:42.318Z,14.57
2023-02-17T14:26:11.093Z,14.39
2023-02-17T14:28:37.168Z,14.55
2023-02-17T14:31:18.956Z,14.55
2023-02-17T14:34:01.730Z,14.48
2023-02-17T14:36:37.283Z,14.48
2023-02-17T14:39:06.837Z,14.55
2023-02-17T14:41:33.381Z,13.73
2023-02-17T14:44:00.100Z,14.58
2023-02-17T14:46:27.107Z,14.42
2023-02-17T14:48:53.697Z,14.64
2023-02-17T14:51:22.813Z,14.56
2023-02-17T14:53:50.137Z,14.35
2023-02-17T14:56:24.919Z,14.52
2023-02-17T14:58:52.393Z,14.51
2023-02-17T15:01:20.019Z,14.27
2023-02-17T15:03:46.325Z,14.31
2023-02-17T15:06:15.277Z,14.50
2023-02-17T15:08:43.181Z,14.46
2023-02-17T15:11:19.820Z,14.52
2023-02-17T15:13:46.724Z,14.42
2023-02-17T15:16:12.895Z,14.38
2023-02-17T15:18:39.847Z,14.27
2023-02-17T15:21:21.169Z,14.37
2023-02-17T15:23:47.257Z,14.17
2023-02-17T15:26:13.559Z,14.08
2023-02-17T15:28:39.721Z,13.98
2023-02-17T15:31:05.874Z,14.12
2023-02-17T15:33:32.000Z,13.96
2023-02-17T15:35:58.090Z,14.09
2023-02-17T15:38:25.860Z,13.76
2023-02-17T15:40:55.988Z,13.46
2023-02-17T15:43:22.348Z,13.08
2023-02-17T15:45:48.703Z,13.90
2023-02-17T15:48:23.418Z,13.70
2023-02-17T15:50:49.776Z,13.70
2023-02-17T15:53:15.869Z,13.80
2023-02-17T15:55:42.184Z,13.70
2023-02-17T15:58:19.359Z,13.66
2023-02-17T16:00:45.840Z,13.63
2023-02-17T16:03:12.897Z,13.60
2023-02-17T16:05:39.645Z,13.58
2023-02-17T16:08:05.887Z,13.44
2023-02-17T16:10:32.753Z,13.18
2023-02-17T16:13:00.442Z,13.43
2023-02-17T16:15:27.828Z,12.83
2023-02-17T16:17:55.038Z,13.61
2023-02-17T16:20:23.795Z,13.45
2023-02-17T16:22:50.555Z,13.47
2023-02-17T16:25:17.771Z,13.03
2023-02-17T16:27:44.899Z,13.16
2023-02-17T16:30:25.451Z,13.08
2023-02-17T16:32:51.990Z,13.26
2023-02-17T16:35:24.403Z,12.92
2023-02-17T16:37:56.392Z,13.24
2023-02-17T16:40:25.603Z,12.80
2023-02-17T16:42:51.960Z,12.94
2023-02-17T16:45:21.146Z,12.99
2023-02-17T16:47:52.611Z,12.93
2023-02-17T16:50:26.138Z,12.85
2023-02-17T16:52:58.065Z,12.47
2023-02-17T16:55:27.012Z,12.19
2023-02-17T16:57:53.133Z,12.54
2023-02-17T17:00:22.739Z,12.35
2023-02-17T17:02:49.529Z,12.52
2023-02-17T17:05:17.418Z,12.50
2023-02-17T17:07:43.788Z,12.28
2023-02-17T17:10:17.060Z,12.00
2023-02-17T17:12:44.274Z,12.18
2023-02-17T17:15:10.766Z,12.25
2023-02-17T17:18:02.116Z,12.27
2023-02-17T17:20:31.762Z,12.34
2023-02-17T17:23:00.287Z,12.14
2023-02-17T17:25:28.334Z,12.31
2023-02-17T17:27:55.822Z,12.22
2023-02-17T17:30:24.973Z,12.24
2023-02-17T17:32:51.932Z,12.33
2023-02-17T17:35:18.552Z,12.33
2023-02-17T17:37:45.084Z,12.12
2023-02-17T17:40:23.605Z,12.26
2023-02-17T17:42:50.508Z,12.09
2023-02-17T17:45:17.228Z,12.10
2023-02-17T17:47:43.521Z,12.04
2023-02-17T17:50:16.737Z,12.16
2023-02-17T17:52:44.715Z,12.23
2023-02-17T17:55:11.644Z,12.15
2023-02-17T17:57:38.198Z,12.14
2023-02-17T18:00:07.004Z,11.65
2023-02-17T18:02:33.187Z,12.32
2023-02-17T18:04:59.291Z,12.45
2023-02-17T18:07:26.036Z,12.43
2023-02-17T18:09:52.182Z,11.91
2023-02-17T18:12:20.120Z,12.57
2023-02-17T18:14:50.218Z,12.25
2023-02-17T18:17:17.464Z,12.10
2023-02-17T18:19:44.777Z,11.62
2023-02-17T18:22:11.273Z,12.41
2023-02-17T18:24:37.392Z,12.28
2023-02-17T18:27:04.154Z,12.22
2023-02-17T18:29:30.322Z,12.44
2023-02-17T18:31:58.355Z,12.25
2023-02-17T18:34:25.072Z,12.23
2023-02-17T18:36:51.351Z,12.45
2023-02-17T18:39:17.476Z,12.47
2023-02-17T18:41:43.632Z,12.38
2023-02-17T18:44:10.858Z,11.60
2023-02-17T18:46:39.184Z,12.32
2023-02-17T18:49:06.057Z,12.22
2023-02-17T18:51:32.199Z,12.16
2023-02-17T18:53:59.676Z,12.25
2023-02-17T18:56:28.470Z,12.49
2023-02-17T18:58:55.371Z,12.29
2023-02-17T19:01:27.274Z,12.30
2023-02-17T19:03:53.944Z,12.30
2023-02-17T19:06:22.752Z,11.92
2023-02-17T19:08:48.942Z,12.17
2023-02-17T19:11:16.215Z,12.32
2023-02-17T19:13:42.386Z,12.14
2023-02-17T19:16:17.769Z,11.51
2023-02-17T19:18:45.190Z,12.23
2023-02-17T19:21:11.932Z,12.13
2023-02-17T19:23:39.846Z,12.17
2023-02-17T19:26:08.077Z,12.16
2023-02-17T19:28:35.855Z,12.08
2023-02-17T19:31:05.738Z,12.14
2023-02-17T19:33:31.900Z,12.10
2023-02-17T19:35:57.967Z,12.03
2023-02-17T19:38:24.137Z,10.80
2023-02-17T19:40:50.325Z,12.04
2023-02-17T19:43:16.538Z,12.04
2023-02-17T19:45:45.424Z,12.10
2023-02-17T19:48:11.511Z,12.17
2023-02-17T19:50:38.357Z,11.92
2023-02-17T19:53:04.718Z,12.14
2023-02-17T19:55:30.811Z,12.21
2023-02-17T19:57:56.909Z,11.98
2023-02-17T20:00:35.547Z,12.05
2023-02-17T20:03:01.707Z,12.09
2023-02-17T20:05:27.832Z,12.02
2023-02-17T20:07:54.897Z,12.21
2023-02-17T20:10:21.604Z,12.02
2023-02-17T20:12:47.730Z,12.04
2023-02-17T20:15:13.937Z,11.94
2023-02-17T20:17:40.415Z,12.18
2023-02-17T20:20:10.282Z,12.25
2023-02-17T20:22:36.352Z,12.31
2023-02-17T20:25:02.586Z,12.36
2023-02-17T20:27:28.662Z,12.22
2023-02-17T20:29:54.862Z,12.30
2023-02-17T20:32:21.026Z,12.21
2023-02-17T20:34:47.292Z,12.33
2023-02-17T20:37:13.412Z,12.31
2023-02-17T20:39:40.475Z,12.35
2023-02-17T20:42:06.757Z,12.33
2023-02-17T20:44:33.333Z,11.12
2023-02-17T20:47:00.146Z,12.46
2023-02-17T20:49:26.483Z,12.04
2023-02-17T20:51:53.079Z,12.36
2023-02-17T20:54:19.287Z,12.33
2023-02-17T20:56:46.285Z,12.43
2023-02-17T20:59:12.843Z,11.73
2023-02-17T21:01:40.251Z,12.35
2023-02-17T21:04:07.170Z,12.38
2023-02-17T21:06:40.385Z,12.49
2023-02-17T21:09:13.008Z,12.40
2023-02-17T21:11:39.539Z,12.44
2023-02-17T21:14:05.757Z,12.47
2023-02-17T21:16:32.333Z,12.51
2023-02-17T21:18:59.514Z,12.30
2023-02-17T21:21:27.106Z,12.46
2023-02-17T21:23:54.029Z,12.50
2023-02-17T21:26:20.423Z,12.32
2023-02-17T21:28:46.815Z,12.36
2023-02-17T21:31:14.386Z,12.52
2023-02-17T21:33:41.500Z,12.44
2023-02-17T21:36:09.664Z,12.51
2023-02-17T21:38:36.753Z,12.33
2023-02-17T21:41:09.840Z,12.44
2023-02-17T21:43:55.631Z,12.43
2023-02-17T21:46:22.772Z,11.95
2023-02-17T21:48:49.640Z,12.50
2023-02-17T21:51:16.661Z,11.98
2023-02-17T21:53:43.184Z,12.01
2023-02-17T21:56:09.703Z,12.05
2023-02-17T21:58:35.986Z,12.06
2023-02-17T22:01:04.275Z,11.48
2023-02-17T22:03:30.503Z,11.51
2023-02-17T22:05:56.811Z,12.11
2023-02-17T22:08:23.653Z,11.95
2023-02-17T22:10:50.021Z,11.66
2023-02-17T22:13:16.110Z,11.96
2023-02-17T22:15:42.180Z,11.92
2023-02-17T22:18:08.266Z,11.85
2023-02-17T22:20:35.125Z,11.53
2023-02-17T22:23:01.265Z,11.12
2023-02-17T22:25:27.604Z,10.69
2023-02-17T22:27:53.687Z,10.99
2023-02-17T22:30:19.841Z,10.66
2023-02-17T22:32:46.006Z,11.01
2023-02-17T22:35:13.453Z,10.75
2023-02-17T22:37:39.525Z,10.40
2023-02-17T22:40:07.454Z,10.50
2023-02-17T22:42:33.549Z,10.42
2023-02-17T22:44:59.644Z,10.29
2023-02-17T22:47:25.787Z,10.52
2023-02-17T22:49:51.973Z,10.78
2023-02-17T22:52:18.055Z,10.67
2023-02-17T22:54:44.181Z,10.99
2023-02-17T22:57:10.290Z,10.76
2023-02-17T22:59:36.475Z,11.06
2023-02-17T23:02:02.719Z,10.92
2023-02-17T23:04:29.067Z,11.04
2023-02-17T23:06:55.294Z,11.02
2023-02-17T23:09:21.477Z,10.54
2023-02-17T23:11:50.494Z,10.51
2023-02-17T23:14:25.757Z,10.67
2023-02-17T23:16:53.788Z,10.62
2023-02-17T23:19:21.793Z,10.74
2023-02-17T23:21:51.207Z,10.72
2023-02-17T23:24:18.395Z,10.89
2023-02-17T23:26:45.248Z,10.89
2023-02-17T23:29:11.326Z,11.24
2023-02-17T23:31:37.603Z,11.34
2023-02-17T23:34:04.489Z,11.42
2023-02-17T23:36:30.625Z,11.26
2023-02-17T23:39:00.352Z,10.71
2023-02-17T23:41:26.965Z,11.42
2023-02-17T23:43:53.412Z,11.42
2023-02-17T23:46:19.917Z,11.36
2023-02-17T23:48:46.341Z,11.46
2023-02-17T23:51:15.639Z,10.53
2023-02-17T23:53:41.776Z,11.48
2023-02-17T23:56:12.602Z,11.29
2023-02-17T23:58:38.704Z,11.21
